createdAt,value
2023-05-16T00:02:49.090Z,100047.86
2023-05-16T00:06:37.007Z,100054.83
2023-05-16T00:10:40.467Z,100061.04
2023-05-16T00:14:28.549Z,100061.53
2023-05-16T00:18:28.124Z,100063.68
2023-05-16T00:22:18.266Z,100063.52
2023-05-16T00:25:50.198Z,100067.77
2023-05-16T00:29:37.648Z,100067.58
2023-05-16T00:37:48.166Z,100067.98
2023-05-16T00:53:43.050Z,100079.54
2023-05-16T01:06:17.026Z,100092.55
2023-05-16T01:10:45.743Z,100097.67
2023-05-16T01:15:36.616Z,100107.77
2023-05-16T01:19:18.445Z,100106.71
2023-05-16T01:23:21.107Z,100112.79
2023-05-16T01:27:27.682Z,100119.92
2023-05-16T01:31:13.359Z,100126.55
2023-05-16T01:35:20.814Z,100131.01
2023-05-16T01:38:42.579Z,100131.45
2023-05-16T01:42:39.524Z,100138.05
2023-05-16T01:46:30.116Z,100145.90
2023-05-16T01:49:53.470Z,100144.49
2023-05-16T01:53:45.300Z,100149.33
2023-05-16T01:57:51.496Z,100156.02
2023-05-16T02:01:38.647Z,100164.51
2023-05-16T02:05:39.159Z,100178.70
2023-05-16T02:10:08.859Z,100184.09
2023-05-16T02:14:12.447Z,100192.08
2023-05-16T02:17:48.906Z,100201.25
2023-05-16T02:21:29.623Z,100199.73
2023-05-16T02:24:54.372Z,100198.20
2023-05-16T02:28:20.229Z,100199.38
2023-05-16T02:31:40.839Z,100205.59
2023-05-16T02:35:52.777Z,100205.65
2023-05-16T02:39:42.028Z,100206.45
2023-05-16T02:43:05.734Z,100213.23
2023-05-16T02:46:45.840Z,100219.59
2023-05-16T02:50:33.265Z,100226.04
2023-05-16T02:54:22.956Z,100237.16
2023-05-16T02:58:10.819Z,100240.14
2023-05-16T03:01:54.411Z,100251.40
2023-05-16T03:06:10.975Z,100256.32
2023-05-16T03:10:16.712Z,100255.74
2023-05-16T03:14:21.409Z,100254.80
2023-05-16T03:18:07.503Z,100255.86
2023-05-16T03:22:06.389Z,100264.30
2023-05-16T03:26:14.336Z,100261.72
2023-05-16T03:30:22.937Z,100268.42
2023-05-16T03:33:53.384Z,100284.55
2023-05-16T03:38:13.495Z,100294.10
2023-05-16T03:42:01.054Z,100289.94
2023-05-16T03:45:48.675Z,100287.69
2023-05-16T03:49:17.496Z,100294.77
2023-05-16T03:53:07.779Z,100304.88
2023-05-16T03:57:21.068Z,100311.83
2023-05-16T04:01:05.569Z,100318.28
2023-05-16T04:05:14.844Z,100326.66
2023-05-16T04:08:46.462Z,100340.35
2023-05-16T04:12:50.505Z,100355.47
2023-05-16T04:20:56.834Z,100365.83
2023-05-16T04:24:44.855Z,100369.94
2023-05-16T04:28:15.848Z,100372.98
2023-05-16T04:32:41.724Z,100379.47
2023-05-16T04:36:31.908Z,100390.91
2023-05-16T04:40:18.687Z,100395.34
2023-05-16T04:44:28.502Z,100404.09
2023-05-16T04:48:55.934Z,100407.99
2023-05-16T04:53:24.076Z,100412.04
2023-05-16T05:01:55.564Z,100408.66
2023-05-16T05:05:43.808Z,100409.51
2023-05-16T05:09:31.557Z,100418.42
2023-05-16T05:13:17.830Z,100419.40
2023-05-16T05:17:01.334Z,100417.91
2023-05-16T05:20:49.603Z,100424.14
2023-05-16T05:24:37.133Z,100437.45
2023-05-16T05:28:24.645Z,100437.21
2023-05-16T05:36:19.290Z,100431.29
2023-05-16T05:40:15.773Z,100429.20
2023-05-16T05:44:23.845Z,100431.13
2023-05-16T05:48:20.061Z,100444.61
2023-05-16T05:52:48.514Z,100451.67
2023-05-16T05:57:00.743Z,100458.29
2023-05-16T06:01:28.858Z,100462.27
2023-05-16T06:05:32.828Z,100463.70
2023-05-16T06:09:43.197Z,100468.00
2023-05-16T06:14:11.035Z,100479.96
2023-05-16T06:18:39.943Z,100491.03
2023-05-16T06:22:48.016Z,100502.45
2023-05-16T06:26:52.112Z,100515.59
2023-05-16T06:31:20.054Z,100526.22
2023-05-16T06:35:35.410Z,100527.95
2023-05-16T06:39:59.997Z,100529.56
2023-05-16T06:44:27.628Z,100528.09
2023-05-16T06:48:35.575Z,100526.83
2023-05-16T06:52:41.266Z,100530.83
2023-05-16T06:56:33.198Z,100538.27
2023-05-16T07:00:37.458Z,100542.80
2023-05-16T07:04:28.137Z,100546.52
2023-05-16T07:08:36.115Z,100540.28
2023-05-16T07:12:44.327Z,100530.35
2023-05-16T07:16:52.249Z,100532.15
2023-05-16T07:21:00.629Z,100541.98
2023-05-16T07:24:50.905Z,100545.38
2023-05-16T07:28:57.009Z,100539.95
2023-05-16T07:32:46.120Z,100541.11
2023-05-16T07:36:54.219Z,100540.83
2023-05-16T07:40:44.387Z,100533.34
2023-05-16T07:44:40.937Z,100536.33
2023-05-16T07:49:08.500Z,100541.72
2023-05-16T07:52:57.380Z,100545.32
2023-05-16T07:57:08.967Z,100540.97
2023-05-16T08:00:57.468Z,100529.98
2023-05-16T08:04:46.742Z,100533.63
2023-05-16T08:08:53.975Z,100529.27
2023-05-16T08:12:43.687Z,100541.79
2023-05-16T08:16:35.363Z,100544.27
2023-05-16T08:21:01.227Z,100548.62
2023-05-16T08:25:10.415Z,100552.30
2023-05-16T08:29:18.896Z,100554.13
2023-05-16T08:33:11.343Z,100552.20
2023-05-16T08:37:44.554Z,100558.34
2023-05-16T08:41:57.229Z,100573.54
2023-05-16T08:46:09.959Z,100583.55
2023-05-16T08:49:59.969Z,100571.66
2023-05-16T08:54:36.297Z,100567.73
2023-05-16T08:58:34.908Z,100572.26
2023-05-16T09:02:54.233Z,100571.92
2023-05-16T09:06:50.058Z,100567.85
2023-05-16T09:10:58.565Z,100565.00
2023-05-16T09:14:48.284Z,100561.77
2023-05-16T09:18:54.376Z,100564.05
2023-05-16T09:23:13.339Z,100566.10
2023-05-16T09:27:25.069Z,100574.65
2023-05-16T09:31:34.639Z,100574.58
2023-05-16T09:35:45.546Z,100587.26
2023-05-16T09:39:55.807Z,100594.67
2023-05-16T09:44:23.827Z,100591.95
2023-05-16T09:48:13.861Z,100589.34
2023-05-16T09:52:06.800Z,100593.48
2023-05-16T09:56:16.610Z,100596.08
2023-05-16T10:00:25.724Z,100598.34
2023-05-16T10:04:41.427Z,100608.94
2023-05-16T10:09:04.696Z,100610.27
2023-05-16T10:13:14.877Z,100614.20
2023-05-16T10:17:22.922Z,100621.26
2023-05-16T10:21:31.257Z,100631.11
2023-05-16T10:26:14.050Z,100638.08
2023-05-16T10:30:03.754Z,100640.80
2023-05-16T10:33:52.450Z,100643.23
2023-05-16T10:37:40.208Z,100658.27
2023-05-16T10:41:36.995Z,100666.56
2023-05-16T10:46:19.579Z,100671.25
2023-05-16T10:50:20.468Z,100681.66
2023-05-16T10:54:19.407Z,100686.85
2023-05-16T10:58:31.247Z,100695.84
2023-05-16T11:02:43.152Z,100693.90
2023-05-16T11:06:54.175Z,100693.99
2023-05-16T11:11:04.295Z,100689.70
2023-05-16T11:15:32.721Z,100686.18
2023-05-16T11:20:12.903Z,100691.64
2023-05-16T11:24:39.718Z,100702.32
2023-05-16T11:29:07.962Z,100703.63
2023-05-16T11:33:36.956Z,100715.77
2023-05-16T11:37:45.684Z,100725.77
2023-05-16T11:42:14.575Z,100721.66
2023-05-16T11:46:57.896Z,100722.39
2023-05-16T11:51:25.557Z,100730.50
2023-05-16T11:55:55.739Z,100730.26
2023-05-16T12:00:05.172Z,100734.64
2023-05-16T12:04:36.248Z,100732.58
2023-05-16T12:08:30.177Z,100735.27
2023-05-16T12:12:19.050Z,100737.93
2023-05-16T12:16:27.920Z,100731.96
2023-05-16T12:20:18.376Z,100738.33
2023-05-16T12:28:41.565Z,100734.11
2023-05-16T12:32:32.968Z,100743.10
2023-05-16T12:36:21.230Z,100740.90
2023-05-16T12:40:29.833Z,100751.63
2023-05-16T12:45:06.550Z,100754.61
2023-05-16T12:49:15.521Z,100754.34
2023-05-16T12:53:03.659Z,100754.23
2023-05-16T12:57:20.535Z,100753.89
2023-05-16T13:01:16.879Z,100757.16
2023-05-16T13:05:25.349Z,100764.08
2023-05-16T13:09:34.962Z,100766.55
2023-05-16T13:13:42.729Z,100770.80
2023-05-16T13:17:50.664Z,100773.86
2023-05-16T13:22:12.042Z,100770.44
2023-05-16T13:26:01.902Z,100756.20
2023-05-16T13:30:10.172Z,100756.59
2023-05-16T13:34:06.372Z,100757.45
2023-05-16T13:38:14.483Z,100759.18
2023-05-16T13:42:03.110Z,100760.73
2023-05-16T13:45:52.479Z,100758.34
2023-05-16T13:49:45.369Z,100766.73
2023-05-16T13:54:15.723Z,100772.08
2023-05-16T13:58:23.649Z,100779.64
2023-05-16T14:02:13.401Z,100782.92
2023-05-16T14:06:01.874Z,100781.04
2023-05-16T14:10:09.847Z,100784.69
2023-05-16T14:14:06.442Z,100777.09
2023-05-16T14:18:15.513Z,100774.89
2023-05-16T14:22:12.495Z,100777.88
2023-05-16T14:26:28.301Z,100781.44
2023-05-16T14:30:15.669Z,100785.38
2023-05-16T14:34:05.681Z,100785.45
2023-05-16T14:38:02.523Z,100787.91
2023-05-16T14:41:54.011Z,100796.34
2023-05-16T14:46:02.023Z,100806.02
2023-05-16T14:49:58.626Z,100806.90
2023-05-16T14:53:49.768Z,100811.05
2023-05-16T14:57:59.982Z,100814.29
2023-05-16T15:01:57.158Z,100816.41
2023-05-16T15:05:46.639Z,100820.04
2023-05-16T15:10:03.365Z,100822.09
2023-05-16T15:13:55.279Z,100816.30
2023-05-16T15:18:02.404Z,100817.90
2023-05-16T15:21:50.312Z,100820.21
2023-05-16T15:25:59.938Z,100817.83
2023-05-16T15:30:08.100Z,100817.64
2023-05-16T15:34:00.221Z,100820.08
2023-05-16T15:37:49.257Z,100818.52
2023-05-16T15:42:10.263Z,100820.31
2023-05-16T15:46:07.289Z,100820.50
2023-05-16T15:49:56.149Z,100817.66
2023-05-16T15:54:19.313Z,100815.64
2023-05-16T15:58:27.420Z,100818.66
2023-05-16T16:02:17.202Z,100816.59
2023-05-16T16:06:26.777Z,100819.91
2023-05-16T16:10:35.170Z,100825.08
2023-05-16T16:14:30.396Z,100827.59
2023-05-16T16:18:18.040Z,100835.20
2023-05-16T16:22:07.190Z,100844.20
2023-05-16T16:26:15.681Z,100849.17
2023-05-16T16:30:02.862Z,100854.02
2023-05-16T16:33:50.877Z,100852.77
2023-05-16T16:38:07.179Z,100856.17
2023-05-16T16:42:11.755Z,100858.34
2023-05-16T16:46:00.222Z,100860.95
2023-05-16T16:50:29.222Z,100870.09
2023-05-16T16:54:37.259Z,100874.17
2023-05-16T16:58:58.009Z,100879.52
2023-05-16T17:03:06.888Z,100880.19
2023-05-16T17:07:12.860Z,100882.54
2023-05-16T17:11:07.192Z,100885.42
2023-05-16T17:15:11.947Z,100882.58
2023-05-16T17:19:01.195Z,100881.85
2023-05-16T17:22:55.198Z,100880.81
2023-05-16T17:26:43.717Z,100893.39
2023-05-16T17:30:32.420Z,100895.70
2023-05-16T17:34:17.733Z,100901.50
2023-05-16T17:38:09.872Z,100901.16
2023-05-16T17:42:19.424Z,100903.20
2023-05-16T17:46:29.854Z,100908.61
2023-05-16T17:50:19.159Z,100911.09
2023-05-16T17:54:11.422Z,100915.05
2023-05-16T17:58:01.717Z,100922.88
2023-05-16T18:01:49.896Z,100938.09
2023-05-16T18:06:01.835Z,100943.45
2023-05-16T18:09:51.837Z,100950.00
2023-05-16T18:13:41.134Z,100956.27
2023-05-16T18:17:49.073Z,100960.73
2023-05-16T18:22:15.070Z,100961.91
2023-05-16T18:26:05.866Z,100955.11
2023-05-16T18:29:55.020Z,100957.85
2023-05-16T18:33:44.153Z,100960.98
2023-05-16T18:37:33.028Z,100963.27
2023-05-16T18:41:20.758Z,100969.34
2023-05-16T18:45:11.246Z,100970.39
2023-05-16T18:49:02.610Z,100974.46
2023-05-16T18:53:12.038Z,100982.51
2023-05-16T18:57:22.230Z,100983.63
2023-05-16T19:01:10.060Z,100980.83
2023-05-16T19:05:00.524Z,100982.92
2023-05-16T19:08:50.057Z,100992.13
2023-05-16T19:12:39.263Z,100993.36
2023-05-16T19:16:30.342Z,100994.53
2023-05-16T19:20:24.291Z,100996.47
2023-05-16T19:23:53.781Z,100993.34
2023-05-16T19:27:42.727Z,100985.95
2023-05-16T19:31:31.060Z,100992.35
2023-05-16T19:35:20.219Z,100981.88
2023-05-16T19:39:16.774Z,100975.80
2023-05-16T19:43:05.958Z,100975.69
2023-05-16T19:47:19.708Z,100974.39
2023-05-16T19:51:08.538Z,100973.61
2023-05-16T19:55:05.085Z,100971.80
2023-05-16T19:58:54.432Z,100972.73
2023-05-16T20:02:44.764Z,100978.98
2023-05-16T20:06:33.900Z,100984.65
2023-05-16T20:10:22.301Z,100989.77
2023-05-16T20:14:30.502Z,100988.40
2023-05-16T20:18:35.225Z,100993.33
2023-05-16T20:22:40.914Z,100996.24
2023-05-16T20:26:30.096Z,100997.77
2023-05-16T20:30:18.694Z,100998.20
2023-05-16T20:34:30.257Z,101004.23
2023-05-16T20:38:38.579Z,101002.75
2023-05-16T20:42:31.713Z,101000.45
2023-05-16T20:46:39.643Z,101007.15
2023-05-16T20:50:44.876Z,101004.89
2023-05-16T20:54:56.361Z,101005.86
2023-05-16T20:58:51.730Z,101007.81
2023-05-16T21:02:44.788Z,101010.53
2023-05-16T21:06:33.326Z,101018.16
2023-05-16T21:10:22.518Z,101018.08
2023-05-16T21:14:30.697Z,101019.95
2023-05-16T21:18:42.368Z,101021.60
2023-05-16T21:22:32.426Z,101022.16
2023-05-16T21:26:20.326Z,101019.36
2023-05-16T21:30:08.926Z,101018.94
2023-05-16T21:34:17.476Z,101020.39
2023-05-16T21:38:13.440Z,101024.57
2023-05-16T21:42:02.541Z,101027.00
2023-05-16T21:45:55.599Z,101026.13
2023-05-16T21:49:43.592Z,101030.36
2023-05-16T21:53:39.281Z,101034.85
2023-05-16T21:57:27.952Z,101037.46
2023-05-16T22:01:36.538Z,101034.05
2023-05-16T22:05:45.512Z,101032.21
2023-05-16T22:09:53.379Z,101030.60
2023-05-16T22:13:42.709Z,101032.98
2023-05-16T22:17:31.364Z,101034.56
2023-05-16T22:21:21.517Z,101041.82
2023-05-16T22:25:29.404Z,101037.39
2023-05-16T22:29:40.417Z,101038.73
2023-05-16T22:33:29.111Z,101037.70
2023-05-16T22:37:37.476Z,101038.34
2023-05-16T22:41:35.892Z,101035.27
2023-05-16T22:45:24.001Z,101038.49
2023-05-16T22:49:14.533Z,101037.94
2023-05-16T22:53:04.366Z,101041.41
2023-05-16T22:56:53.687Z,101043.65
2023-05-16T23:01:02.400Z,101041.52
2023-05-16T23:04:54.397Z,101042.36
2023-05-16T23:08:44.681Z,101045.67
2023-05-16T23:12:34.538Z,101042.85
2023-05-16T23:16:43.942Z,101043.77
2023-05-16T23:20:52.495Z,101047.09
2023-05-16T23:24:44.375Z,101049.02
2023-05-16T23:28:32.889Z,101047.13
2023-05-16T23:32:22.358Z,101046.96
2023-05-16T23:36:11.092Z,101047.05
2023-05-16T23:39:59.483Z,101042.58
2023-05-16T23:43:50.142Z,101046.46
2023-05-16T23:47:39.581Z,101043.39
2023-05-16T23:51:45.307Z,101043.88
2023-05-16T23:55:42.790Z,101045.70
2023-05-16T23:59:32.272Z,101039.65
